Main page
METAR-TAF:

METAR-TAF

Airports :

Belgorod International Airport

Belgorod, Russia

latitude: 50-38-36N, longitude: 036-35-24E, elevation: 224 m

Current weather observation

The report was made 24 minutes ago, at 00:30 UTC
Wind 6 kt from the Northwest
Temperature -3°C
Humidity 93%
Pressure 1030 hPa
Visibility 10 km or more

METAR: UUOB 180030Z 31003MPS 9999 NSC M03/M04 Q1030 R11/010060 NOSIG

Time: 03:54 (00:54 UTC)

Forecast

The report was made 1 hour and 54 minutes ago, at 23:00 UTC
Forecast valid from 18 at 00 UTC to 18 at 09 UTC
Wind 6 kt from the Northwest
Visibility: 5000 m
Scattered clouds at a height of 2000 ft
mist
Temporary
from 18 at 00 UTC to 18 at 03 UTC
Visibility: 0500 m
at a height of 200 ft
freezing fog

TAF: UUOB 172300Z 1800/1809 32003MPS 5000 BR SCT020 TEMPO 1800/1803 0500 FZFG VV002

Weather observations and forecasts of more than 4000 airports (METAR and TAF reports).

The available stations are represented by yellow and red dots on the map.

Hover mouse over dot to see the name of the station.

Then click to see weather observations and forecasts.

To change the map : click on the green buttons with a black cross to zoom in, on the green button with a dash to zoom out, or on the green arrows for adjacent maps.


METAR-TAF: